createdAt,value
2016-10-01T00:04:55.244Z,0
2016-10-01T00:09:51.909Z,0
2016-10-01T00:14:49.131Z,0
2016-10-01T00:19:45.945Z,0
2016-10-01T00:24:42.601Z,0
2016-10-01T00:29:38.965Z,0
2016-10-01T00:34:36.040Z,0
2016-10-01T00:39:32.602Z,0
2016-10-01T00:44:28.992Z,0
2016-10-01T00:49:25.808Z,0
2016-10-01T00:54:23.397Z,0
2016-10-01T00:59:19.952Z,0
2016-10-01T01:04:17.372Z,0
2016-10-01T01:09:14.381Z,0
2016-10-01T01:14:10.862Z,0
2016-10-01T01:19:08.383Z,0
2016-10-01T01:24:04.606Z,0
2016-10-01T01:29:02.558Z,0
2016-10-01T01:33:59.306Z,0
2016-10-01T01:38:55.705Z,0
2016-10-01T01:43:52.309Z,0
2016-10-01T01:48:49.231Z,0
2016-10-01T01:53:45.623Z,0
2016-10-01T01:58:41.837Z,0
2016-10-01T02:03:38.721Z,0
2016-10-01T02:08:35.148Z,0
2016-10-01T02:13:31.303Z,0
2016-10-01T02:18:27.758Z,0
2016-10-01T02:23:24.739Z,0
2016-10-01T02:28:21.281Z,0
2016-10-01T02:33:17.701Z,0
2016-10-01T02:38:14.656Z,0
2016-10-01T02:43:15.657Z,0
2016-10-01T02:48:13.628Z,0
2016-10-01T02:53:09.879Z,0
2016-10-01T02:58:06.717Z,0
2016-10-01T03:03:04.132Z,0
2016-10-01T03:08:01.017Z,0
2016-10-01T03:12:57.218Z,0
2016-10-01T03:17:53.826Z,0
2016-10-01T03:22:50.551Z,0
2016-10-01T03:27:48.803Z,0
2016-10-01T03:32:45.087Z,0
2016-10-01T03:37:43.002Z,0
2016-10-01T03:42:39.171Z,0
2016-10-01T03:47:36.032Z,0
2016-10-01T03:52:32.605Z,0
2016-10-01T03:57:30.454Z,0
2016-10-01T04:02:26.648Z,0
2016-10-01T04:07:23.259Z,0
2016-10-01T04:12:19.608Z,0
2016-10-01T04:17:17.088Z,0
2016-10-01T04:22:13.624Z,0
2016-10-01T04:27:16.331Z,0
2016-10-01T04:32:11.826Z,0
2016-10-01T04:37:09.882Z,0
2016-10-01T04:42:05.819Z,0
2016-10-01T04:47:02.304Z,0
2016-10-01T04:51:59.354Z,0
2016-10-01T04:56:56.178Z,0
2016-10-01T05:01:52.716Z,0
2016-10-01T05:06:49.448Z,0
2016-10-01T05:11:46.617Z,4
2016-10-01T05:16:43.183Z,8
2016-10-01T05:21:40.429Z,12
2016-10-01T05:26:37.254Z,16
2016-10-01T05:31:34.082Z,20
2016-10-01T05:36:30.739Z,36
2016-10-01T05:41:27.534Z,52
2016-10-01T05:46:24.368Z,72
2016-10-01T05:51:21.177Z,104
2016-10-01T05:56:17.987Z,116
2016-10-01T06:01:14.541Z,168
2016-10-01T06:06:10.833Z,172
2016-10-01T06:11:07.757Z,176
2016-10-01T06:16:04.455Z,252
2016-10-01T06:21:01.335Z,380
2016-10-01T06:25:58.093Z,540
2016-10-01T06:30:56.952Z,656
2016-10-01T06:35:53.637Z,788
2016-10-01T06:40:50.416Z,928
2016-10-01T06:45:47.303Z,1260
2016-10-01T06:50:43.793Z,1556
2016-10-01T06:55:40.507Z,1476
2016-10-01T07:00:37.263Z,1652
2016-10-01T07:05:34.616Z,1648
2016-10-01T07:15:31.522Z,1976
2016-10-01T07:20:28.076Z,2584
2016-10-01T07:25:24.678Z,3372
2016-10-01T07:30:21.490Z,4552
2016-10-01T07:35:19.124Z,4872
2016-10-01T07:40:15.809Z,5160
2016-10-01T07:45:12.606Z,5140
2016-10-01T07:50:09.205Z,4732
2016-10-01T07:55:05.624Z,4192
2016-10-01T08:00:02.652Z,3532
2016-10-01T08:04:59.192Z,4556
2016-10-01T08:09:56.273Z,4800
2016-10-01T08:14:53.111Z,4912
2016-10-01T08:19:50.907Z,4540
2016-10-01T08:24:47.325Z,4132
2016-10-01T08:29:43.946Z,3512
2016-10-01T08:34:40.624Z,4004
2016-10-01T08:39:37.198Z,3248
2016-10-01T08:44:34.982Z,3052
2016-10-01T08:49:31.126Z,2556
2016-10-01T08:54:27.692Z,3320
2016-10-01T08:59:24.591Z,2776
2016-10-01T09:04:21.070Z,3264
2016-10-01T09:09:17.798Z,4024
2016-10-01T09:14:14.635Z,3740
2016-10-01T09:19:11.400Z,3560
2016-10-01T09:24:08.254Z,5264
2016-10-01T09:29:05.555Z,6684
2016-10-01T09:34:02.181Z,8604
2016-10-01T09:39:00.075Z,7272
2016-10-01T09:43:56.509Z,8380
2016-10-01T09:48:53.493Z,8536
2016-10-01T09:53:50.119Z,6864
2016-10-01T09:58:47.007Z,6240
2016-10-01T10:03:43.604Z,6232
2016-10-01T10:08:41.956Z,9832
2016-10-01T10:13:38.714Z,11744
2016-10-01T10:18:38.332Z,9428
2016-10-01T10:23:35.179Z,8180
2016-10-01T10:28:31.279Z,9092
2016-10-01T10:33:29.151Z,9252
2016-10-01T10:38:25.921Z,9976
2016-10-01T10:43:22.129Z,11104
2016-10-01T10:48:20.401Z,12944
2016-10-01T10:53:17.189Z,9668
2016-10-01T10:58:14.040Z,13816
2016-10-01T11:03:11.780Z,7936
2016-10-01T11:08:07.761Z,6552
2016-10-01T11:13:04.605Z,9528
2016-10-01T11:18:01.330Z,12800
2016-10-01T11:23:00.801Z,22656
2016-10-01T11:27:57.266Z,11432
2016-10-01T11:32:53.040Z,11688
2016-10-01T11:37:51.155Z,12060
2016-10-01T11:42:48.031Z,11324
2016-10-01T11:47:45.193Z,28160
2016-10-01T11:52:40.924Z,8908
2016-10-01T11:57:37.070Z,8264
2016-10-01T12:02:32.780Z,5632
2016-10-01T12:07:28.566Z,7008
2016-10-01T12:12:25.548Z,5804
2016-10-01T12:17:23.004Z,6608
2016-10-01T12:22:19.322Z,7128
2016-10-01T12:27:17.017Z,7032
2016-10-01T12:32:13.458Z,6384
2016-10-01T12:37:10.231Z,7620
2016-10-01T12:42:06.736Z,7228
2016-10-01T12:47:03.527Z,9016
2016-10-01T12:52:00.153Z,7944
2016-10-01T13:02:03.254Z,7412
2016-10-01T13:07:00.031Z,9232
2016-10-01T13:11:56.919Z,7876
2016-10-01T13:16:53.341Z,7600
2016-10-01T13:21:49.480Z,4772
2016-10-01T13:26:45.953Z,3544
2016-10-01T13:31:42.335Z,3712
2016-10-01T13:36:39.155Z,4420
2016-10-01T13:41:35.868Z,3276
2016-10-01T13:46:32.946Z,3052
2016-10-01T13:51:29.269Z,3808
2016-10-01T13:56:26.150Z,4228
2016-10-01T14:01:22.876Z,5356
2016-10-01T14:06:19.542Z,4020
2016-10-01T14:11:16.200Z,3204
2016-10-01T14:16:12.909Z,2468
2016-10-01T14:21:09.419Z,2604
2016-10-01T14:26:05.946Z,3860
2016-10-01T14:31:02.397Z,2012
2016-10-01T14:35:58.969Z,1104
2016-10-01T14:40:56.474Z,1276
2016-10-01T14:45:52.485Z,1884
2016-10-01T14:50:49.128Z,3004
2016-10-01T14:55:45.841Z,2652
2016-10-01T15:00:42.565Z,2932
2016-10-01T15:05:41.070Z,4440
2016-10-01T15:10:37.778Z,4348
2016-10-01T15:15:35.009Z,5492
2016-10-01T15:20:32.146Z,6464
2016-10-01T15:25:29.453Z,4672
2016-10-01T15:30:28.008Z,3952
2016-10-01T15:35:24.194Z,3388
2016-10-01T15:40:20.619Z,3296
2016-10-01T15:45:18.348Z,3056
2016-10-01T15:50:14.934Z,2484
2016-10-01T15:55:12.315Z,1992
2016-10-01T16:00:08.461Z,1984
2016-10-01T16:05:05.188Z,1696
2016-10-01T16:10:01.935Z,2012
2016-10-01T16:14:58.921Z,1624
2016-10-01T16:19:55.483Z,1436
2016-10-01T16:24:52.044Z,1108
2016-10-01T16:29:48.563Z,844
2016-10-01T16:34:45.035Z,740
2016-10-01T16:39:41.539Z,580
2016-10-01T16:44:38.168Z,464
2016-10-01T16:49:35.256Z,428
2016-10-01T16:54:31.713Z,312
2016-10-01T16:59:27.939Z,240
2016-10-01T17:04:24.722Z,160
2016-10-01T17:09:21.573Z,96
2016-10-01T17:14:17.956Z,44
2016-10-01T17:19:14.666Z,24
2016-10-01T17:24:11.514Z,12
2016-10-01T17:29:08.174Z,4
2016-10-01T17:34:06.080Z,4
2016-10-01T17:39:02.224Z,0
2016-10-01T17:43:58.899Z,0
2016-10-01T17:48:55.366Z,0
2016-10-01T17:53:51.872Z,0
2016-10-01T18:03:44.883Z,0
2016-10-01T18:08:42.542Z,0
2016-10-01T18:13:38.848Z,0
2016-10-01T18:18:35.376Z,0
2016-10-01T18:23:31.931Z,0
2016-10-01T18:28:28.484Z,0
2016-10-01T18:33:25.757Z,0
2016-10-01T18:38:22.187Z,0
2016-10-01T18:43:18.712Z,0
2016-10-01T18:48:15.340Z,0
2016-10-01T18:53:12.225Z,0
2016-10-01T18:58:08.706Z,0
2016-10-01T19:03:05.006Z,0
2016-10-01T19:08:01.754Z,0
2016-10-01T19:12:58.931Z,0
2016-10-01T19:17:55.453Z,0
2016-10-01T19:22:51.897Z,0
2016-10-01T19:27:48.798Z,0
2016-10-01T19:32:44.876Z,0
2016-10-01T19:37:41.452Z,0
2016-10-01T19:42:37.972Z,0
2016-10-01T19:47:34.572Z,0
2016-10-01T19:52:31.187Z,0
2016-10-01T19:57:27.762Z,0
2016-10-01T20:02:24.667Z,0
2016-10-01T20:07:21.384Z,0
2016-10-01T20:12:17.941Z,0
2016-10-01T20:17:14.426Z,0
2016-10-01T20:22:11.535Z,0
2016-10-01T20:27:08.320Z,0
2016-10-01T20:32:04.839Z,0
2016-10-01T20:37:01.498Z,0
2016-10-01T20:41:58.344Z,0
2016-10-01T20:46:55.473Z,0
2016-10-01T20:51:52.559Z,0
2016-10-01T20:56:49.014Z,0
2016-10-01T21:01:45.303Z,0
2016-10-01T21:06:41.843Z,0
2016-10-01T21:11:38.157Z,0
2016-10-01T21:16:34.842Z,0
2016-10-01T21:21:31.184Z,0
2016-10-01T21:26:27.742Z,0
2016-10-01T21:31:24.284Z,0
2016-10-01T21:36:20.772Z,0
2016-10-01T21:41:18.073Z,0
2016-10-01T21:46:14.909Z,0
2016-10-01T21:51:11.042Z,0
2016-10-01T21:56:07.417Z,0
2016-10-01T22:01:04.085Z,0
2016-10-01T22:06:00.580Z,0
2016-10-01T22:10:57.444Z,0
2016-10-01T22:15:53.934Z,0
2016-10-01T22:20:50.518Z,0
2016-10-01T22:25:46.814Z,0
2016-10-01T22:30:43.276Z,0
2016-10-01T22:35:40.121Z,0
2016-10-01T22:40:37.946Z,0
2016-10-01T22:45:34.947Z,0
2016-10-01T22:50:31.500Z,0
2016-10-01T22:55:28.162Z,0
2016-10-01T23:00:24.810Z,0
2016-10-01T23:05:21.734Z,0
2016-10-01T23:10:18.357Z,0
2016-10-01T23:15:15.016Z,0
2016-10-01T23:20:11.380Z,0
2016-10-01T23:25:08.065Z,0
2016-10-01T23:30:04.727Z,0
2016-10-01T23:35:01.244Z,0
2016-10-01T23:39:57.877Z,0
2016-10-01T23:44:54.566Z,0
2016-10-01T23:49:52.227Z,0
2016-10-01T23:54:48.889Z,0
2016-10-01T23:59:46.770Z,0
